Terminal Aerodrome Forecast
Issued by NWS

Home | Current Version | Previous Version | Text Only | Print | Product List | Glossary Off
Versions: 1 2 3 4 5 6 7 8 9 10 11 12 13 14 15 16 17 18 19 20 21 22 23 24 25 26 27 28 29 30 31 32 33 34 35 36 37 38 39 40

000
FTUS43 KGRB 182300
TAFRHI
TAF
KRHI 182337Z 1900/1924 19006KT P6SM SCT020 SCT200
     FM190600 17004KT 6SM BR SCT008 SCT020
      TEMPO 1907/1910 2SM BR BKN006
     FM191000 18003KT 4SM BR BKN005 WS015/22035KT
     FM191500 19012G18KT P6SM SCT006 BKN200
     FM191800 19015G22KT P6SM SCT100 BKN200=

USA.gov is the U.S. government's official web portal to all federal, state and local government web resources and services.